PWSweather.com
Personal Weather Stations
Station Observations
KILMORRI1
Goose Lake, Morris, IL 60450

Goose LakeMorris, IL 60450

Lat: 41.34, Lon: -88.3

Elevation: 523

Station Type:

www.gooselakeweather.com

High Low Average
Temperature 53.6°F12.0°C 43.6°F6.4°C 48.9°F9.4°C
Dew Point 44.4°F6.9°C 36.8°F2.7°C 39.2°F4.0°C
Winds 8.1 mph 13.0 kmh Calm Calm 3.0 mph ESE4.8 kmh ESE
Wind Gusts 12.7 mph20.4 kmh -- 5.0 mph8.0 kmh
Humidity 87% 55% 70%
Pressure 29.93 in1013.5 mb 29.72 in1006.4 mb -
Precipitation 0.00 in0.0 mm - -
Hour Temp Dew Point Humidity Winds Wind Gusts Pressure Precip Precip Rate Daily Precip Total
12:00 AM 47.9°F8.8°C 45.1°F7.3°C 90% Calm Calm -- 29.92 in1013.2 mb - 0.00 in0.0 mm 0.00 in0.0 mm
12:10 AM 47.8°F8.8°C 45.0°F7.2°C 90% Calm Calm -- 29.92 in1013.2 mb - 0.00 in0.0 mm 0.00 in0.0 mm
12:20 AM 47.8°F8.8°C 44.7°F7.1°C 89% Calm Calm -- 29.92 in1013.2 mb - 0.00 in0.0 mm 0.00 in0.0 mm
12:30 AM 47.6°F8.7°C 44.5°F6.9°C 89% Calm Calm 1.2 mph1.9 kmh 29.92 in1013.2 mb - 0.00 in0.0 mm 0.00 in0.0 mm
12:40 AM 47.8°F8.8°C 44.4°F6.9°C 88% Calm Calm 1.2 mph1.9 kmh 29.92 in1013.2 mb - 0.00 in0.0 mm 0.00 in0.0 mm
12:50 AM 47.9°F8.8°C 44.2°F6.8°C 87% Calm Calm -- 29.93 in1013.5 mb - 0.00 in0.0 mm 0.00 in0.0 mm
01:00 AM 48.1°F8.9°C 44.4°F6.9°C 87% Calm Calm -- 29.93 in1013.5 mb - 0.00 in0.0 mm 0.00 in0.0 mm
01:10 AM 48.0°F8.9°C 44.0°F6.7°C 86% Calm Calm -- 29.93 in1013.5 mb - 0.00 in0.0 mm 0.00 in0.0 mm
01:20 AM 48.3°F9.1°C 43.4°F6.3°C 83% Calm Calm -- 29.93 in1013.5 mb - 0.00 in0.0 mm 0.00 in0.0 mm
01:30 AM 48.2°F9.0°C 43.2°F6.2°C 83% Calm Calm 1.2 mph1.9 kmh 29.93 in1013.5 mb - 0.00 in0.0 mm 0.00 in0.0 mm
01:40 AM 48.0°F8.9°C 43.1°F6.2°C 83% Calm Calm -- 29.92 in1013.2 mb - 0.00 in0.0 mm 0.00 in0.0 mm
01:50 AM 47.8°F8.8°C 43.2°F6.2°C 84% Calm Calm -- 29.92 in1013.2 mb - 0.00 in0.0 mm 0.00 in0.0 mm
02:00 AM 47.4°F8.6°C 43.1°F6.2°C 85% Calm Calm -- 29.90 in1012.5 mb - 0.00 in0.0 mm 0.00 in0.0 mm
02:10 AM 47.2°F8.4°C 43.6°F6.4°C 87% Calm Calm -- 29.89 in1012.2 mb - 0.00 in0.0 mm 0.00 in0.0 mm
02:20 AM 47.0°F8.3°C 43.3°F6.3°C 87% Calm Calm 1.2 mph1.9 kmh 29.90 in1012.5 mb - 0.00 in0.0 mm 0.00 in0.0 mm
02:30 AM 47.0°F8.3°C 43.3°F6.3°C 87% Calm Calm -- 29.89 in1012.2 mb - 0.00 in0.0 mm 0.00 in0.0 mm
02:40 AM 47.0°F8.3°C 43.3°F6.3°C 87% Calm Calm 1.2 mph1.9 kmh 29.89 in1012.2 mb - 0.00 in0.0 mm 0.00 in0.0 mm
02:50 AM 47.8°F8.8°C 42.9°F6.1°C 83% Calm Calm 1.2 mph1.9 kmh 29.89 in1012.2 mb - 0.00 in0.0 mm 0.00 in0.0 mm
03:00 AM 48.6°F9.2°C 42.0°F5.6°C 78% 1.2 mph NNE1.9 kmh NNE 2.3 mph3.7 kmh 29.88 in1011.9 mb - 0.00 in0.0 mm 0.00 in0.0 mm
03:10 AM 48.8°F9.3°C 41.9°F5.5°C 77% 1.2 mph NNE1.9 kmh NNE 2.3 mph3.7 kmh 29.88 in1011.9 mb - 0.00 in0.0 mm 0.00 in0.0 mm
03:20 AM 49.2°F9.6°C 41.6°F5.3°C 75% 1.2 mph NE1.9 kmh NE 1.2 mph1.9 kmh 29.87 in1011.5 mb - 0.00 in0.0 mm 0.00 in0.0 mm
03:30 AM 49.6°F9.8°C 41.3°F5.2°C 73% 1.2 mph NE1.9 kmh NE 2.3 mph3.7 kmh 29.87 in1011.5 mb - 0.00 in0.0 mm 0.00 in0.0 mm
03:40 AM 49.9°F9.9°C 40.5°F4.7°C 70% 2.3 mph NE3.7 kmh NE 3.5 mph5.6 kmh 29.87 in1011.5 mb - 0.00 in0.0 mm 0.00 in0.0 mm
03:50 AM 50.2°F10.1°C 39.6°F4.2°C 67% 2.3 mph NE3.7 kmh NE 3.5 mph5.6 kmh 29.86 in1011.2 mb - 0.00 in0.0 mm 0.00 in0.0 mm
04:00 AM 50.3°F10.2°C 39.0°F3.9°C 65% 2.3 mph NE3.7 kmh NE 3.5 mph5.6 kmh 29.85 in1010.8 mb - 0.00 in0.0 mm 0.00 in0.0 mm
04:10 AM 50.4°F10.2°C 39.1°F3.9°C 65% 1.2 mph NNE1.9 kmh NNE 3.5 mph5.6 kmh 29.85 in1010.8 mb - 0.00 in0.0 mm 0.00 in0.0 mm
04:20 AM 50.2°F10.1°C 38.5°F3.6°C 64% 2.3 mph NE3.7 kmh NE 3.5 mph5.6 kmh 29.85 in1010.8 mb - 0.00 in0.0 mm 0.00 in0.0 mm
04:30 AM 50.4°F10.2°C 38.3°F3.5°C 63% 3.5 mph NE5.6 kmh NE 3.5 mph5.6 kmh 29.84 in1010.5 mb - 0.00 in0.0 mm 0.00 in0.0 mm
04:40 AM 50.6°F10.3°C 38.1°F3.4°C 62% 3.5 mph NE5.6 kmh NE 6.9 mph11.1 kmh 29.85 in1010.8 mb - 0.00 in0.0 mm 0.00 in0.0 mm
04:50 AM 50.6°F10.3°C 38.1°F3.4°C 62% 2.3 mph NE3.7 kmh NE 4.6 mph7.4 kmh 29.85 in1010.8 mb - 0.00 in0.0 mm 0.00 in0.0 mm
05:00 AM 50.6°F10.3°C 38.1°F3.4°C 62% 3.5 mph NNE5.6 kmh NNE 4.6 mph7.4 kmh 29.86 in1011.2 mb - 0.00 in0.0 mm 0.00 in0.0 mm
05:10 AM 50.8°F10.4°C 38.2°F3.4°C 62% 2.3 mph NE3.7 kmh NE 4.6 mph7.4 kmh 29.87 in1011.5 mb - 0.00 in0.0 mm 0.00 in0.0 mm
05:20 AM 50.6°F10.3°C 38.1°F3.4°C 62% 3.5 mph NE5.6 kmh NE 5.8 mph9.3 kmh 29.86 in1011.2 mb - 0.00 in0.0 mm 0.00 in0.0 mm
05:30 AM 50.5°F10.3°C 38.4°F3.6°C 63% 2.3 mph NE3.7 kmh NE 3.5 mph5.6 kmh 29.86 in1011.2 mb - 0.00 in0.0 mm 0.00 in0.0 mm
05:40 AM 50.4°F10.2°C 38.7°F3.7°C 64% 2.3 mph NE3.7 kmh NE 3.5 mph5.6 kmh 29.87 in1011.5 mb - 0.00 in0.0 mm 0.00 in0.0 mm
05:50 AM 50.1°F10.1°C 38.8°F3.8°C 65% 3.5 mph NE5.6 kmh NE 6.9 mph11.1 kmh 29.86 in1011.2 mb - 0.00 in0.0 mm 0.00 in0.0 mm
06:00 AM 50.0°F10.0°C 39.1°F3.9°C 66% 2.3 mph NNE3.7 kmh NNE 3.5 mph5.6 kmh 29.86 in1011.2 mb - 0.00 in0.0 mm 0.00 in0.0 mm
06:10 AM 50.0°F10.0°C 39.1°F3.9°C 66% 2.3 mph NE3.7 kmh NE 3.5 mph5.6 kmh 29.85 in1010.8 mb - 0.00 in0.0 mm 0.00 in0.0 mm
06:20 AM 50.0°F10.0°C 39.5°F4.2°C 67% 2.3 mph NE3.7 kmh NE 6.9 mph11.1 kmh 29.85 in1010.8 mb - 0.00 in0.0 mm 0.00 in0.0 mm
06:30 AM 50.1°F10.1°C 39.6°F4.2°C 67% 1.2 mph NE1.9 kmh NE 1.2 mph1.9 kmh 29.84 in1010.5 mb - 0.00 in0.0 mm 0.00 in0.0 mm
06:40 AM 49.9°F9.9°C 39.8°F4.3°C 68% 2.3 mph NE3.7 kmh NE 4.6 mph7.4 kmh 29.85 in1010.8 mb - 0.00 in0.0 mm 0.00 in0.0 mm
06:50 AM 50.0°F10.0°C 39.5°F4.2°C 67% 3.5 mph NE5.6 kmh NE 8.1 mph13.0 kmh 29.85 in1010.8 mb - 0.00 in0.0 mm 0.00 in0.0 mm
07:00 AM 50.0°F10.0°C 39.5°F4.2°C 67% 2.3 mph NE3.7 kmh NE 3.5 mph5.6 kmh 29.84 in1010.5 mb - 0.00 in0.0 mm 0.00 in0.0 mm
07:10 AM 49.7°F9.8°C 39.6°F4.2°C 68% 3.5 mph NE5.6 kmh NE 8.1 mph13.0 kmh 29.84 in1010.5 mb - 0.00 in0.0 mm 0.00 in0.0 mm
07:20 AM 50.0°F10.0°C 39.5°F4.2°C 67% 3.5 mph NE5.6 kmh NE 5.8 mph9.3 kmh 29.84 in1010.5 mb - 0.00 in0.0 mm 0.00 in0.0 mm
07:30 AM 50.2°F10.1°C 39.7°F4.3°C 67% 3.5 mph NE5.6 kmh NE 3.5 mph5.6 kmh 29.84 in1010.5 mb - 0.00 in0.0 mm 0.00 in0.0 mm
07:40 AM 50.1°F10.1°C 39.9°F4.4°C 68% 1.2 mph NE1.9 kmh NE 3.5 mph5.6 kmh 29.83 in1010.2 mb - 0.00 in0.0 mm 0.00 in0.0 mm
07:50 AM 50.1°F10.1°C 40.0°F4.4°C 68% 2.3 mph NE3.7 kmh NE 3.5 mph5.6 kmh 29.84 in1010.5 mb - 0.00 in0.0 mm 0.00 in0.0 mm
08:00 AM 50.1°F10.1°C 40.3°F4.6°C 69% 3.5 mph ENE5.6 kmh ENE 8.1 mph13.0 kmh 29.84 in1010.5 mb - 0.00 in0.0 mm 0.00 in0.0 mm
08:10 AM 50.2°F10.1°C 40.4°F4.7°C 69% 2.3 mph NE3.7 kmh NE 3.5 mph5.6 kmh 29.84 in1010.5 mb - 0.00 in0.0 mm 0.00 in0.0 mm
08:20 AM 50.0°F10.0°C 40.6°F4.8°C 70% 3.5 mph NE5.6 kmh NE 5.8 mph9.3 kmh 29.84 in1010.5 mb - 0.00 in0.0 mm 0.00 in0.0 mm
08:30 AM 50.3°F10.2°C 40.5°F4.7°C 69% 5.8 mph NE9.3 kmh NE 8.1 mph13.0 kmh 29.84 in1010.5 mb - 0.00 in0.0 mm 0.00 in0.0 mm
08:40 AM 50.3°F10.2°C 40.5°F4.7°C 69% 3.5 mph NE5.6 kmh NE 5.8 mph9.3 kmh 29.84 in1010.5 mb - 0.00 in0.0 mm 0.00 in0.0 mm
08:50 AM 50.3°F10.2°C 40.5°F4.7°C 69% 4.6 mph NNE7.4 kmh NNE 9.2 mph14.8 kmh 29.84 in1010.5 mb - 0.00 in0.0 mm 0.00 in0.0 mm
09:00 AM 50.1°F10.1°C 40.4°F4.7°C 69% 2.3 mph NE3.7 kmh NE 3.5 mph5.6 kmh 29.83 in1010.2 mb - 0.00 in0.0 mm 0.00 in0.0 mm
09:10 AM 50.1°F10.1°C 40.3°F4.6°C 69% 3.5 mph NE5.6 kmh NE 5.8 mph9.3 kmh 29.81 in1009.5 mb - 0.00 in0.0 mm 0.00 in0.0 mm
09:20 AM 50.2°F10.1°C 40.0°F4.4°C 68% 3.5 mph NE5.6 kmh NE 3.5 mph5.6 kmh 29.81 in1009.5 mb - 0.00 in0.0 mm 0.00 in0.0 mm
09:30 AM 50.2°F10.1°C 40.4°F4.7°C 69% 3.5 mph NE5.6 kmh NE 4.6 mph7.4 kmh 29.82 in1009.8 mb - 0.00 in0.0 mm 0.00 in0.0 mm
09:40 AM 50.3°F10.2°C 40.5°F4.7°C 69% 3.5 mph NE5.6 kmh NE 6.9 mph11.1 kmh 29.83 in1010.2 mb - 0.00 in0.0 mm 0.00 in0.0 mm
09:50 AM 50.3°F10.2°C 40.5°F4.7°C 69% 3.5 mph NE5.6 kmh NE 6.9 mph11.1 kmh 29.81 in1009.5 mb - 0.00 in0.0 mm 0.00 in0.0 mm
10:00 AM 50.5°F10.3°C 40.7°F4.8°C 69% 3.5 mph NE5.6 kmh NE 9.2 mph14.8 kmh 29.79 in1008.8 mb - 0.00 in0.0 mm 0.00 in0.0 mm
10:10 AM 50.9°F10.5°C 41.1°F5.1°C 69% 4.6 mph ENE7.4 kmh ENE 6.9 mph11.1 kmh 29.78 in1008.5 mb - 0.00 in0.0 mm 0.00 in0.0 mm
10:20 AM 51.3°F10.7°C 41.8°F5.4°C 70% 4.6 mph NE7.4 kmh NE 10.4 mph16.7 kmh 29.79 in1008.8 mb - 0.00 in0.0 mm 0.00 in0.0 mm
10:30 AM 51.3°F10.7°C 41.4°F5.2°C 69% 4.6 mph NE7.4 kmh NE 8.1 mph13.0 kmh 29.80 in1009.1 mb - 0.00 in0.0 mm 0.00 in0.0 mm
10:40 AM 51.0°F10.6°C 42.0°F5.6°C 71% 1.2 mph E1.9 kmh E 2.3 mph3.7 kmh 29.80 in1009.1 mb - 0.00 in0.0 mm 0.00 in0.0 mm
10:50 AM 50.8°F10.4°C 42.5°F5.8°C 73% 2.3 mph E3.7 kmh E 4.6 mph7.4 kmh 29.80 in1009.1 mb - 0.00 in0.0 mm 0.00 in0.0 mm
11:00 AM 51.0°F10.6°C 42.6°F5.9°C 73% 1.2 mph E1.9 kmh E 2.3 mph3.7 kmh 29.80 in1009.1 mb - 0.00 in0.0 mm 0.00 in0.0 mm
11:10 AM 51.6°F10.9°C 42.1°F5.6°C 70% 3.5 mph NE5.6 kmh NE 9.2 mph14.8 kmh 29.80 in1009.1 mb - 0.00 in0.0 mm 0.00 in0.0 mm
11:20 AM 52.0°F11.1°C 41.4°F5.2°C 67% 2.3 mph E3.7 kmh E 6.9 mph11.1 kmh 29.79 in1008.8 mb - 0.00 in0.0 mm 0.00 in0.0 mm
11:30 AM 52.1°F11.2°C 41.1°F5.1°C 66% 2.3 mph E3.7 kmh E 3.5 mph5.6 kmh 29.79 in1008.8 mb - 0.00 in0.0 mm 0.00 in0.0 mm
11:40 AM 52.1°F11.2°C 39.1°F3.9°C 61% 4.6 mph NE7.4 kmh NE 6.9 mph11.1 kmh 29.79 in1008.8 mb - 0.00 in0.0 mm 0.00 in0.0 mm
11:50 AM 52.2°F11.2°C 39.6°F4.2°C 62% 4.6 mph NE7.4 kmh NE 3.5 mph5.6 kmh 29.78 in1008.5 mb - 0.00 in0.0 mm 0.00 in0.0 mm
12:00 PM 52.4°F11.3°C 39.7°F4.3°C 62% 4.6 mph NE7.4 kmh NE 8.1 mph13.0 kmh 29.79 in1008.8 mb - 0.00 in0.0 mm 0.00 in0.0 mm
12:10 PM 52.4°F11.3°C 38.9°F3.8°C 60% 5.8 mph NE9.3 kmh NE 9.2 mph14.8 kmh 29.78 in1008.5 mb - 0.00 in0.0 mm 0.00 in0.0 mm
12:20 PM 52.6°F11.4°C 39.1°F3.9°C 60% 4.6 mph NE7.4 kmh NE 10.4 mph16.7 kmh 29.79 in1008.8 mb - 0.00 in0.0 mm 0.00 in0.0 mm
12:30 PM 52.6°F11.4°C 38.7°F3.7°C 59% 4.6 mph NE7.4 kmh NE 10.4 mph16.7 kmh 29.78 in1008.5 mb - 0.00 in0.0 mm 0.00 in0.0 mm
12:40 PM 52.9°F11.6°C 37.6°F3.1°C 56% 8.1 mph NE13.0 kmh NE 12.7 mph20.4 kmh 29.77 in1008.1 mb - 0.00 in0.0 mm 0.00 in0.0 mm
12:50 PM 53.0°F11.7°C 37.7°F3.2°C 56% 6.9 mph NE11.1 kmh NE 11.5 mph18.5 kmh 29.76 in1007.8 mb - 0.00 in0.0 mm 0.00 in0.0 mm
01:00 PM 53.2°F11.8°C 38.4°F3.6°C 57% 4.6 mph NNE7.4 kmh NNE 11.5 mph18.5 kmh 29.75 in1007.5 mb - 0.00 in0.0 mm 0.00 in0.0 mm
01:10 PM 53.4°F11.9°C 37.6°F3.1°C 55% 4.6 mph NE7.4 kmh NE 9.2 mph14.8 kmh 29.75 in1007.5 mb - 0.00 in0.0 mm 0.00 in0.0 mm
01:20 PM 53.6°F12.0°C 38.3°F3.5°C 56% 6.9 mph NE11.1 kmh NE 11.5 mph18.5 kmh 29.75 in1007.5 mb - 0.00 in0.0 mm 0.00 in0.0 mm
01:40 PM 52.9°F11.6°C 38.0°F3.3°C 57% 4.6 mph ENE7.4 kmh ENE 8.1 mph13.0 kmh 29.73 in1006.8 mb - 0.00 in0.0 mm 0.00 in0.0 mm
01:50 PM 52.4°F11.3°C 38.5°F3.6°C 59% 3.5 mph ENE5.6 kmh ENE 6.9 mph11.1 kmh 29.73 in1006.8 mb - 0.00 in0.0 mm 0.00 in0.0 mm
02:00 PM 52.1°F11.2°C 38.7°F3.7°C 60% 3.5 mph NE5.6 kmh NE 9.2 mph14.8 kmh 29.73 in1006.8 mb - 0.00 in0.0 mm 0.00 in0.0 mm
02:10 PM 52.0°F11.1°C 39.0°F3.9°C 61% 2.3 mph NNE3.7 kmh NNE 4.6 mph7.4 kmh 29.73 in1006.8 mb - 0.00 in0.0 mm 0.00 in0.0 mm
02:20 PM 51.7°F10.9°C 38.3°F3.5°C 60% 5.8 mph NNE9.3 kmh NNE 10.4 mph16.7 kmh 29.73 in1006.8 mb - 0.00 in0.0 mm 0.00 in0.0 mm
02:30 PM 51.4°F10.8°C 38.0°F3.3°C 60% 4.6 mph NE7.4 kmh NE 11.5 mph18.5 kmh 29.73 in1006.8 mb - 0.00 in0.0 mm 0.00 in0.0 mm
02:40 PM 51.2°F10.7°C 37.8°F3.2°C 60% 4.6 mph NE7.4 kmh NE 8.1 mph13.0 kmh 29.74 in1007.1 mb - 0.00 in0.0 mm 0.00 in0.0 mm
02:50 PM 51.1°F10.6°C 36.8°F2.7°C 58% 3.5 mph NE5.6 kmh NE 10.4 mph16.7 kmh 29.74 in1007.1 mb - 0.00 in0.0 mm 0.00 in0.0 mm
03:00 PM 51.0°F10.6°C 37.2°F2.9°C 59% 4.6 mph NE7.4 kmh NE 9.2 mph14.8 kmh 29.73 in1006.8 mb - 0.00 in0.0 mm 0.00 in0.0 mm
03:10 PM 51.0°F10.6°C 37.2°F2.9°C 59% 3.5 mph NE5.6 kmh NE 3.5 mph5.6 kmh 29.73 in1006.8 mb - 0.00 in0.0 mm 0.00 in0.0 mm
03:20 PM 50.9°F10.5°C 37.5°F3.1°C 60% 3.5 mph NE5.6 kmh NE 3.5 mph5.6 kmh 29.72 in1006.4 mb - 0.00 in0.0 mm 0.00 in0.0 mm
03:30 PM 50.7°F10.4°C 38.1°F3.4°C 62% 3.5 mph ENE5.6 kmh ENE 5.8 mph9.3 kmh 29.72 in1006.4 mb - 0.00 in0.0 mm 0.00 in0.0 mm
03:40 PM 50.4°F10.2°C 38.3°F3.5°C 63% 5.8 mph NNE9.3 kmh NNE 12.7 mph20.4 kmh 29.73 in1006.8 mb - 0.00 in0.0 mm 0.00 in0.0 mm
03:50 PM 50.2°F10.1°C 38.5°F3.6°C 64% 5.8 mph NNE9.3 kmh NNE 10.4 mph16.7 kmh 29.73 in1006.8 mb - 0.00 in0.0 mm 0.00 in0.0 mm
04:00 PM 50.0°F10.0°C 38.3°F3.5°C 64% 5.8 mph NE9.3 kmh NE 9.2 mph14.8 kmh 29.73 in1006.8 mb - 0.00 in0.0 mm 0.00 in0.0 mm
04:10 PM 49.7°F9.8°C 38.4°F3.6°C 65% 4.6 mph NNE7.4 kmh NNE 10.4 mph16.7 kmh 29.73 in1006.8 mb - 0.00 in0.0 mm 0.00 in0.0 mm
04:20 PM 49.5°F9.7°C 38.2°F3.4°C 65% 4.6 mph NE7.4 kmh NE 8.1 mph13.0 kmh 29.74 in1007.1 mb - 0.00 in0.0 mm 0.00 in0.0 mm
04:30 PM 49.4°F9.7°C 38.1°F3.4°C 65% 2.3 mph NE3.7 kmh NE 3.5 mph5.6 kmh 29.75 in1007.5 mb - 0.00 in0.0 mm 0.00 in0.0 mm
04:40 PM 49.0°F9.4°C 38.2°F3.4°C 66% 2.3 mph NNE3.7 kmh NNE 3.5 mph5.6 kmh 29.74 in1007.1 mb - 0.00 in0.0 mm 0.00 in0.0 mm
04:50 PM 48.9°F9.4°C 38.0°F3.3°C 66% 2.3 mph NNE3.7 kmh NNE 4.6 mph7.4 kmh 29.74 in1007.1 mb - 0.00 in0.0 mm 0.00 in0.0 mm
05:00 PM 48.9°F9.4°C 38.0°F3.3°C 66% 4.6 mph NE7.4 kmh NE 6.9 mph11.1 kmh 29.74 in1007.1 mb - 0.00 in0.0 mm 0.00 in0.0 mm
05:10 PM 48.7°F9.3°C 38.6°F3.7°C 68% 3.5 mph N5.6 kmh N 6.9 mph11.1 kmh 29.73 in1006.8 mb - 0.00 in0.0 mm 0.00 in0.0 mm
05:20 PM 48.6°F9.2°C 38.5°F3.6°C 68% 4.6 mph N7.4 kmh N 11.5 mph18.5 kmh 29.74 in1007.1 mb - 0.00 in0.0 mm 0.00 in0.0 mm
05:30 PM 48.4°F9.1°C 38.7°F3.7°C 69% 4.6 mph NNE7.4 kmh NNE 9.2 mph14.8 kmh 29.73 in1006.8 mb - 0.00 in0.0 mm 0.00 in0.0 mm
05:40 PM 48.2°F9.0°C 38.9°F3.8°C 70% 2.3 mph N3.7 kmh N 3.5 mph5.6 kmh 29.73 in1006.8 mb - 0.00 in0.0 mm 0.00 in0.0 mm
05:50 PM 48.0°F8.9°C 39.0°F3.9°C 71% 3.5 mph N5.6 kmh N 8.1 mph13.0 kmh 29.73 in1006.8 mb - 0.00 in0.0 mm 0.00 in0.0 mm
06:00 PM 47.8°F8.8°C 38.8°F3.8°C 71% 3.5 mph N5.6 kmh N 8.1 mph13.0 kmh 29.73 in1006.8 mb - 0.00 in0.0 mm 0.00 in0.0 mm
06:10 PM 47.5°F8.6°C 38.6°F3.7°C 71% 2.3 mph N3.7 kmh N 4.6 mph7.4 kmh 29.74 in1007.1 mb - 0.00 in0.0 mm 0.00 in0.0 mm
06:20 PM 47.4°F8.6°C 38.5°F3.6°C 71% 2.3 mph N3.7 kmh N 3.5 mph5.6 kmh 29.74 in1007.1 mb - 0.00 in0.0 mm 0.00 in0.0 mm
06:30 PM 47.3°F8.5°C 38.4°F3.6°C 71% 3.5 mph N5.6 kmh N 4.6 mph7.4 kmh 29.75 in1007.5 mb - 0.00 in0.0 mm 0.00 in0.0 mm
06:40 PM 47.3°F8.5°C 38.7°F3.7°C 72% 3.5 mph N5.6 kmh N 5.8 mph9.3 kmh 29.75 in1007.5 mb - 0.00 in0.0 mm 0.00 in0.0 mm
06:50 PM 47.1°F8.4°C 38.5°F3.6°C 72% 3.5 mph NNW5.6 kmh NNW 9.2 mph14.8 kmh 29.76 in1007.8 mb - 0.00 in0.0 mm 0.00 in0.0 mm
07:00 PM 47.0°F8.3°C 38.4°F3.6°C 72% 4.6 mph N7.4 kmh N 6.9 mph11.1 kmh 29.76 in1007.8 mb - 0.00 in0.0 mm 0.00 in0.0 mm
07:10 PM 46.9°F8.3°C 38.3°F3.5°C 72% 6.9 mph N11.1 kmh N 10.4 mph16.7 kmh 29.76 in1007.8 mb - 0.00 in0.0 mm 0.00 in0.0 mm
07:20 PM 46.7°F8.2°C 38.1°F3.4°C 72% 2.3 mph N3.7 kmh N 4.6 mph7.4 kmh 29.77 in1008.1 mb - 0.00 in0.0 mm 0.00 in0.0 mm
07:30 PM 46.5°F8.1°C 38.3°F3.5°C 73% 4.6 mph NNW7.4 kmh NNW 8.1 mph13.0 kmh 29.77 in1008.1 mb - 0.00 in0.0 mm 0.00 in0.0 mm
07:40 PM 46.3°F7.9°C 38.1°F3.4°C 73% 2.3 mph NW3.7 kmh NW 3.5 mph5.6 kmh 29.78 in1008.5 mb - 0.00 in0.0 mm 0.00 in0.0 mm
07:50 PM 46.2°F7.9°C 38.0°F3.3°C 73% 3.5 mph N5.6 kmh N 4.6 mph7.4 kmh 29.79 in1008.8 mb - 0.00 in0.0 mm 0.00 in0.0 mm
08:00 PM 46.2°F7.9°C 37.7°F3.2°C 72% 2.3 mph N3.7 kmh N 3.5 mph5.6 kmh 29.78 in1008.5 mb - 0.00 in0.0 mm 0.00 in0.0 mm
08:10 PM 45.9°F7.7°C 37.7°F3.2°C 73% 1.2 mph NNW1.9 kmh NNW 3.5 mph5.6 kmh 29.78 in1008.5 mb - 0.00 in0.0 mm 0.00 in0.0 mm
08:20 PM 45.8°F7.7°C 37.6°F3.1°C 73% 2.3 mph N3.7 kmh N 9.2 mph14.8 kmh 29.78 in1008.5 mb - 0.00 in0.0 mm 0.00 in0.0 mm
08:30 PM 45.8°F7.7°C 37.3°F2.9°C 72% 3.5 mph NE5.6 kmh NE 3.5 mph5.6 kmh 29.78 in1008.5 mb - 0.00 in0.0 mm 0.00 in0.0 mm
08:40 PM 45.7°F7.6°C 37.5°F3.1°C 73% 2.3 mph N3.7 kmh N 3.5 mph5.6 kmh 29.79 in1008.8 mb - 0.00 in0.0 mm 0.00 in0.0 mm
08:50 PM 45.7°F7.6°C 37.5°F3.1°C 73% 2.3 mph N3.7 kmh N 6.9 mph11.1 kmh 29.79 in1008.8 mb - 0.00 in0.0 mm 0.00 in0.0 mm
09:00 PM 45.7°F7.6°C 37.5°F3.1°C 73% 3.5 mph N5.6 kmh N 5.8 mph9.3 kmh 29.79 in1008.8 mb - 0.00 in0.0 mm 0.00 in0.0 mm
09:10 PM 45.5°F7.5°C 37.4°F3.0°C 73% 2.3 mph N3.7 kmh N 3.5 mph5.6 kmh 29.79 in1008.8 mb - 0.00 in0.0 mm 0.00 in0.0 mm
09:20 PM 45.5°F7.5°C 37.7°F3.2°C 74% 2.3 mph N3.7 kmh N 6.9 mph11.1 kmh 29.80 in1009.1 mb - 0.00 in0.0 mm 0.00 in0.0 mm
09:30 PM 45.4°F7.4°C 37.9°F3.3°C 75% 2.3 mph NNE3.7 kmh NNE 3.5 mph5.6 kmh 29.80 in1009.1 mb - 0.00 in0.0 mm 0.00 in0.0 mm
09:40 PM 45.2°F7.3°C 37.7°F3.2°C 75% 1.2 mph NNW1.9 kmh NNW 4.6 mph7.4 kmh 29.80 in1009.1 mb - 0.00 in0.0 mm 0.00 in0.0 mm
09:50 PM 45.1°F7.3°C 37.6°F3.1°C 75% 1.2 mph N1.9 kmh N 2.3 mph3.7 kmh 29.80 in1009.1 mb - 0.00 in0.0 mm 0.00 in0.0 mm
10:00 PM 45.0°F7.2°C 37.6°F3.1°C 75% 1.2 mph N1.9 kmh N 3.5 mph5.6 kmh 29.79 in1008.8 mb - 0.00 in0.0 mm 0.00 in0.0 mm
10:10 PM 44.9°F7.2°C 37.8°F3.2°C 76% 2.3 mph NW3.7 kmh NW 3.5 mph5.6 kmh 29.79 in1008.8 mb - 0.00 in0.0 mm 0.00 in0.0 mm
10:20 PM 44.8°F7.1°C 37.4°F3.0°C 75% 2.3 mph NW3.7 kmh NW 3.5 mph5.6 kmh 29.79 in1008.8 mb - 0.00 in0.0 mm 0.00 in0.0 mm
10:30 PM 44.7°F7.1°C 37.6°F3.1°C 76% 1.2 mph NNW1.9 kmh NNW 3.5 mph5.6 kmh 29.79 in1008.8 mb - 0.00 in0.0 mm 0.00 in0.0 mm
10:40 PM 44.8°F7.1°C 37.3°F2.9°C 75% 2.3 mph N3.7 kmh N 3.5 mph5.6 kmh 29.79 in1008.8 mb - 0.00 in0.0 mm 0.00 in0.0 mm
10:50 PM 44.7°F7.1°C 37.3°F2.9°C 75% 2.3 mph N3.7 kmh N 3.5 mph5.6 kmh 29.79 in1008.8 mb - 0.00 in0.0 mm 0.00 in0.0 mm
11:00 PM 44.6°F7.0°C 37.5°F3.1°C 76% 2.3 mph N3.7 kmh N 3.5 mph5.6 kmh 29.79 in1008.8 mb - 0.00 in0.0 mm 0.00 in0.0 mm
11:10 PM 44.6°F7.0°C 37.5°F3.1°C 76% 2.3 mph NW3.7 kmh NW 4.6 mph7.4 kmh 29.79 in1008.8 mb - 0.00 in0.0 mm 0.00 in0.0 mm
11:20 PM 44.4°F6.9°C 37.3°F2.9°C 76% 2.3 mph NW3.7 kmh NW 3.5 mph5.6 kmh 29.79 in1008.8 mb - 0.00 in0.0 mm 0.00 in0.0 mm
11:30 PM 44.4°F6.9°C 37.3°F2.9°C 76% 2.3 mph NW3.7 kmh NW 3.5 mph5.6 kmh 29.80 in1009.1 mb - 0.00 in0.0 mm 0.00 in0.0 mm
11:40 PM 44.2°F6.8°C 37.4°F3.0°C 77% 2.3 mph NNW3.7 kmh NNW 3.5 mph5.6 kmh 29.80 in1009.1 mb - 0.00 in0.0 mm 0.00 in0.0 mm
11:50 PM 44.1°F6.7°C 37.7°F3.2°C 78% 2.3 mph NW3.7 kmh NW 3.5 mph5.6 kmh 29.80 in1009.1 mb - 0.00 in0.0 mm 0.00 in0.0 mm